createdAt,value
2018-01-05T00:00:01.274Z,6.9
2018-01-05T00:01:00.873Z,6.9
2018-01-05T00:02:00.250Z,6.9
2018-01-05T00:03:00.629Z,6.92
2018-01-05T00:04:00.934Z,6.91
2018-01-05T00:05:00.273Z,6.9
2018-01-05T00:06:00.850Z,6.86
2018-01-05T00:07:00.319Z,6.84
2018-01-05T00:08:00.697Z,6.83
2018-01-05T00:09:00.990Z,6.86
2018-01-05T00:10:00.568Z,6.83
2018-01-05T00:11:00.074Z,6.84
2018-01-05T00:12:00.340Z,6.85
2018-01-05T00:13:00.865Z,6.81
2018-01-05T00:14:00.316Z,6.83
2018-01-05T00:15:00.531Z,6.8
2018-01-05T00:16:00.854Z,6.8
2018-01-05T00:19:05.956Z,6.65
2018-01-05T00:20:00.257Z,6.63
2018-01-05T00:21:00.732Z,6.59
2018-01-05T00:22:00.329Z,6.58
2018-01-05T00:23:00.517Z,6.6
2018-01-05T00:24:00.754Z,6.52
2018-01-05T00:25:01.043Z,6.51
2018-01-05T00:26:00.192Z,6.46
2018-01-05T00:27:00.465Z,6.51
2018-01-05T00:28:00.689Z,6.51
2018-01-05T00:29:00.829Z,6.52
2018-01-05T00:30:00.205Z,6.54
2018-01-05T00:31:00.455Z,6.57
2018-01-05T00:32:00.756Z,6.57
2018-01-05T00:33:00.252Z,6.58
2018-01-05T00:34:00.633Z,6.57
2018-01-05T00:35:00.830Z,6.58
2018-01-05T00:36:00.810Z,6.59
2018-01-05T00:37:01.067Z,6.55
2018-01-05T00:38:00.442Z,6.56
2018-01-05T00:39:00.733Z,6.57
2018-01-05T00:40:01.060Z,6.56
2018-01-05T00:41:00.350Z,6.59
2018-01-05T00:42:01.210Z,6.57
2018-01-05T00:43:00.729Z,6.53
2018-01-05T00:44:01.317Z,6.51
2018-01-05T00:45:00.759Z,6.5
2018-01-05T00:46:00.337Z,6.48
2018-01-05T00:47:00.701Z,6.48
2018-01-05T00:48:01.072Z,6.48
2018-01-05T00:49:00.424Z,6.5
2018-01-05T00:50:00.781Z,6.48
2018-01-05T00:51:00.409Z,6.47
2018-01-05T00:52:00.742Z,6.43
2018-01-05T00:53:01.076Z,6.45
2018-01-05T00:54:00.676Z,6.43
2018-01-05T00:55:01.220Z,6.41
2018-01-05T00:56:00.519Z,6.45
2018-01-05T00:57:00.737Z,6.42
2018-01-05T00:58:00.908Z,6.4
2018-01-05T00:59:00.086Z,6.43
2018-01-05T01:00:00.675Z,6.43
2018-01-05T01:01:01.321Z,6.44
2018-01-05T01:02:00.826Z,6.42
2018-01-05T01:03:01.274Z,6.46
2018-01-05T01:04:00.571Z,6.39
2018-01-05T01:05:01.067Z,6.39
2018-01-05T01:06:01.327Z,6.39
2018-01-05T01:07:00.738Z,6.42
2018-01-05T01:08:01.060Z,6.4
2018-01-05T01:09:01.318Z,6.38
2018-01-05T01:10:00.475Z,6.34
2018-01-05T01:11:01.433Z,6.32
2018-01-05T01:12:00.670Z,6.35
2018-01-05T01:13:00.992Z,6.38
2018-01-05T01:14:01.265Z,6.33
2018-01-05T01:15:00.740Z,6.32
2018-01-05T01:16:01.058Z,6.34
2018-01-05T01:17:01.375Z,6.35
2018-01-05T01:18:00.675Z,6.37
2018-01-05T01:19:01.101Z,6.39
2018-01-05T01:20:00.407Z,6.35
2018-01-05T01:21:00.704Z,6.38
2018-01-05T01:22:00.900Z,6.36
2018-01-05T01:23:01.118Z,6.4
2018-01-05T01:24:01.356Z,6.41
2018-01-05T01:25:00.698Z,6.41
2018-01-05T01:26:01.375Z,6.41
2018-01-05T01:27:00.559Z,6.44
2018-01-05T01:28:00.626Z,6.45
2018-01-05T01:29:00.910Z,6.43
2018-01-05T01:30:01.402Z,6.37
2018-01-05T01:31:00.764Z,6.37
2018-01-05T01:32:01.195Z,6.37
2018-01-05T01:33:00.514Z,6.41
2018-01-05T01:34:00.932Z,6.44
2018-01-05T01:35:01.195Z,6.49
2018-01-05T01:36:00.583Z,6.51
2018-01-05T01:37:00.804Z,6.52
2018-01-05T01:38:01.003Z,6.53
2018-01-05T01:39:01.213Z,6.53
2018-01-05T01:41:24.624Z,6.56
2018-01-05T01:42:00.968Z,6.55
2018-01-05T01:43:00.404Z,6.57
2018-01-05T01:44:00.768Z,6.62
2018-01-05T01:45:01.013Z,6.58
2018-01-05T01:46:01.151Z,6.61
2018-01-05T01:47:00.666Z,6.6
2018-01-05T01:48:00.990Z,6.63
2018-01-05T01:49:00.486Z,6.62
2018-01-05T01:50:00.708Z,6.64
2018-01-05T01:51:00.998Z,6.64
2018-01-05T01:52:01.314Z,6.62
2018-01-05T01:53:00.556Z,6.65
2018-01-05T01:54:00.752Z,6.62
2018-01-05T01:55:01.060Z,6.59
2018-01-05T01:56:00.413Z,6.63
2018-01-05T01:57:00.833Z,6.65
2018-01-05T01:58:00.413Z,6.68
2018-01-05T01:59:00.794Z,6.68
2018-01-05T02:00:00.973Z,6.7
2018-01-05T02:01:01.412Z,6.69
2018-01-05T02:02:00.930Z,6.69
2018-01-05T02:03:01.426Z,6.7
2018-01-05T02:04:00.825Z,6.69
2018-01-05T02:05:01.183Z,6.65
2018-01-05T02:06:00.384Z,6.66
2018-01-05T02:07:00.580Z,6.64
2018-01-05T02:08:00.702Z,6.66
2018-01-05T02:09:01.240Z,6.66
2018-01-05T02:10:00.650Z,6.63
2018-01-05T02:11:01.027Z,6.64
2018-01-05T02:12:01.150Z,6.58
2018-01-05T02:13:00.376Z,6.59
2018-01-05T02:14:00.804Z,6.64
2018-01-05T02:15:01.192Z,6.65
2018-01-05T02:16:00.652Z,6.61
2018-01-05T02:17:01.034Z,6.64
2018-01-05T02:18:00.476Z,6.66
2018-01-05T02:19:00.685Z,6.57
2018-01-05T02:20:01.164Z,6.56
2018-01-05T02:21:00.476Z,6.6
2018-01-05T02:22:00.740Z,6.6
2018-01-05T02:23:00.947Z,6.63
2018-01-05T02:24:01.147Z,6.62
2018-01-05T02:25:01.201Z,6.6
2018-01-05T02:26:00.519Z,6.61
2018-01-05T02:27:01.095Z,6.63
2018-01-05T02:28:01.345Z,6.55
2018-01-05T02:29:00.670Z,6.56
2018-01-05T02:30:01.041Z,6.59
2018-01-05T02:31:00.319Z,6.61
2018-01-05T02:32:00.580Z,6.6
2018-01-05T02:33:00.982Z,6.59
2018-01-05T02:34:01.423Z,6.55
2018-01-05T02:35:02.633Z,6.58
2018-01-05T02:36:00.901Z,6.57
2018-01-05T02:37:01.329Z,6.62
2018-01-05T02:38:00.848Z,6.63
2018-01-05T02:39:01.138Z,6.65
2018-01-05T02:40:01.708Z,6.64
2018-01-05T02:41:01.151Z,6.65
2018-01-05T02:42:01.521Z,6.66
2018-01-05T02:43:00.966Z,6.66
2018-01-05T02:44:01.273Z,6.67
2018-01-05T02:45:01.601Z,6.67
2018-01-05T02:46:00.978Z,6.7
2018-01-05T02:47:01.293Z,6.69
2018-01-05T02:49:24.373Z,6.71
2018-01-05T02:50:00.756Z,6.69
2018-01-05T02:51:01.219Z,6.68
2018-01-05T02:52:01.368Z,6.64
2018-01-05T02:53:00.667Z,6.68
2018-01-05T02:54:00.831Z,6.67
2018-01-05T02:55:01.100Z,6.67
2018-01-05T02:56:01.279Z,6.72
2018-01-05T02:57:00.486Z,6.68
2018-01-05T02:58:00.551Z,6.68
2018-01-05T02:59:00.699Z,6.71
2018-01-05T03:00:01.196Z,6.71
2018-01-05T03:01:01.535Z,6.71
2018-01-05T03:02:01.336Z,6.72
2018-01-05T03:03:00.790Z,6.7
2018-01-05T03:04:01.127Z,6.74
2018-01-05T03:05:00.440Z,6.73
2018-01-05T03:06:00.724Z,6.75
2018-01-05T03:07:01.137Z,6.76
2018-01-05T03:08:00.358Z,6.77
2018-01-05T03:09:00.585Z,6.77
2018-01-05T03:10:00.956Z,6.77
2018-01-05T03:11:00.162Z,6.78
2018-01-05T03:12:00.336Z,6.79
2018-01-05T03:13:00.365Z,6.81
2018-01-05T03:14:00.688Z,6.81
2018-01-05T03:15:00.816Z,6.81
2018-01-05T03:16:01.096Z,6.83
2018-01-05T03:17:00.397Z,6.82
2018-01-05T03:18:00.733Z,6.81
2018-01-05T03:19:02.520Z,6.83
2018-01-05T03:20:01.093Z,6.84
2018-01-05T03:21:00.516Z,6.85
2018-01-05T03:22:00.908Z,6.83
2018-01-05T03:23:01.207Z,6.85
2018-01-05T03:24:00.860Z,6.83
2018-01-05T03:25:00.213Z,6.83
2018-01-05T03:26:00.465Z,6.84
2018-01-05T03:27:00.812Z,6.82
2018-01-05T03:28:01.129Z,6.84
2018-01-05T03:29:00.397Z,6.83
2018-01-05T03:30:00.741Z,6.85
2018-01-05T03:31:00.262Z,6.86
2018-01-05T03:32:00.541Z,6.83
2018-01-05T03:33:00.702Z,6.82
2018-01-05T03:33:59.997Z,6.82
2018-01-05T03:35:00.491Z,6.79
2018-01-05T03:36:00.684Z,6.8
2018-01-05T03:36:59.887Z,6.81
2018-01-05T03:38:00.067Z,6.77
2018-01-05T03:39:00.357Z,6.83
2018-01-05T03:40:00.686Z,6.77
2018-01-05T03:41:00.000Z,6.77
2018-01-05T03:42:00.351Z,6.79
2018-01-05T03:43:00.838Z,6.79
2018-01-05T03:44:00.147Z,6.81
2018-01-05T03:45:00.460Z,6.8
2018-01-05T03:45:59.969Z,6.83
2018-01-05T03:47:00.325Z,6.81
2018-01-05T03:48:00.716Z,6.81
2018-01-05T03:48:59.987Z,6.79
2018-01-05T03:50:00.277Z,6.78
2018-01-05T03:51:00.820Z,6.77
2018-01-05T03:52:00.237Z,6.78
2018-01-05T03:53:00.633Z,6.75
2018-01-05T03:54:00.002Z,6.76
2018-01-05T03:55:00.121Z,6.75
2018-01-05T03:56:00.322Z,6.75
2018-01-05T03:57:00.731Z,6.76
2018-01-05T03:57:59.818Z,6.71
2018-01-05T03:58:59.933Z,6.76
2018-01-05T04:00:00.280Z,6.75
2018-01-05T04:01:00.504Z,6.77
2018-01-05T04:02:00.739Z,6.77
2018-01-05T04:03:00.056Z,6.74
2018-01-05T04:04:00.514Z,6.77
2018-01-05T04:05:00.961Z,6.77
2018-01-05T04:06:01.724Z,6.78
2018-01-05T04:07:01.176Z,6.74
2018-01-05T04:08:00.493Z,6.73
2018-01-05T04:09:00.654Z,6.74
2018-01-05T04:10:00.979Z,6.75
2018-01-05T04:11:01.230Z,6.73
2018-01-05T04:12:00.570Z,6.73
2018-01-05T04:13:00.818Z,6.76
2018-01-05T04:14:00.929Z,6.75
2018-01-05T04:15:01.016Z,6.73
2018-01-05T04:16:01.229Z,6.75
2018-01-05T04:17:00.395Z,6.69
2018-01-05T04:18:00.761Z,6.68
2018-01-05T04:19:01.031Z,6.62
2018-01-05T04:20:01.819Z,6.68
2018-01-05T04:21:00.964Z,6.7
2018-01-05T04:22:01.129Z,6.73
2018-01-05T04:23:01.435Z,6.68
2018-01-05T04:24:00.809Z,6.7
2018-01-05T04:25:01.109Z,6.69
2018-01-05T04:26:01.378Z,6.66
2018-01-05T04:27:00.584Z,6.68
2018-01-05T04:28:00.822Z,6.66
2018-01-05T04:29:01.804Z,6.68
2018-01-05T04:30:01.104Z,6.65
2018-01-05T04:31:01.343Z,6.65
2018-01-05T04:32:00.634Z,6.65
2018-01-05T04:33:00.950Z,6.67
2018-01-05T04:34:01.331Z,6.67
2018-01-05T04:35:00.693Z,6.71
2018-01-05T04:36:00.918Z,6.72
2018-01-05T04:37:01.125Z,6.71
2018-01-05T04:38:00.467Z,6.7
2018-01-05T04:39:00.895Z,6.71
2018-01-05T04:40:00.420Z,6.69
2018-01-05T04:41:00.724Z,6.71
2018-01-05T04:42:00.980Z,6.66
2018-01-05T04:43:01.139Z,6.67
2018-01-05T04:44:00.248Z,6.64
2018-01-05T04:45:00.517Z,6.69
2018-01-05T04:46:00.917Z,6.67
2018-01-05T04:47:00.366Z,6.65
2018-01-05T04:48:00.641Z,6.67
2018-01-05T04:49:01.137Z,6.68
2018-01-05T04:50:00.559Z,6.67
2018-01-05T04:51:00.173Z,6.66
2018-01-05T04:52:00.331Z,6.65
2018-01-05T04:53:00.830Z,6.62
2018-01-05T04:54:01.169Z,6.61
2018-01-05T04:55:00.440Z,6.62
2018-01-05T04:56:01.911Z,6.63
2018-01-05T04:57:02.353Z,6.62
2018-01-05T04:58:00.840Z,6.63
2018-01-05T04:59:01.116Z,6.62
2018-01-05T05:00:00.311Z,6.64
2018-01-05T05:01:00.565Z,6.63
2018-01-05T05:02:00.898Z,6.61
2018-01-05T05:03:01.150Z,6.58
2018-01-05T05:04:00.369Z,6.61
2018-01-05T05:05:00.940Z,6.6
2018-01-05T05:06:00.214Z,6.6
2018-01-05T05:07:00.550Z,6.65
2018-01-05T05:07:59.918Z,6.62
2018-01-05T05:08:59.993Z,6.61
2018-01-05T05:10:00.079Z,6.65
2018-01-05T05:11:00.012Z,6.61
2018-01-05T05:11:59.957Z,6.61
2018-01-05T05:13:00.259Z,6.62
2018-01-05T05:14:00.507Z,6.63
2018-01-05T05:15:01.777Z,6.65
2018-01-05T05:15:59.990Z,6.62
2018-01-05T05:17:00.125Z,6.62
2018-01-05T05:18:00.392Z,6.6
2018-01-05T05:18:59.723Z,6.64
2018-01-05T05:19:59.945Z,6.63
2018-01-05T05:21:00.302Z,6.62
2018-01-05T05:22:00.564Z,6.58
2018-01-05T05:23:00.103Z,6.61
2018-01-05T05:24:00.350Z,6.61
2018-01-05T05:25:00.490Z,6.61
2018-01-05T05:25:59.648Z,6.64
2018-01-05T05:27:00.116Z,6.63
2018-01-05T05:28:00.504Z,6.65
2018-01-05T05:28:59.890Z,6.68
2018-01-05T05:30:00.242Z,6.63
2018-01-05T05:31:00.544Z,6.64
2018-01-05T05:31:59.832Z,6.64
2018-01-05T05:33:00.149Z,6.65
2018-01-05T05:34:00.690Z,6.66
2018-01-05T05:34:59.882Z,6.66
2018-01-05T05:36:00.208Z,6.67
2018-01-05T05:37:00.226Z,6.69
2018-01-05T05:38:00.331Z,6.66
2018-01-05T05:39:00.470Z,6.67
2018-01-05T05:40:00.686Z,6.65
2018-01-05T05:41:01.141Z,6.68
2018-01-05T05:42:00.415Z,6.69
2018-01-05T05:43:00.702Z,6.67
2018-01-05T05:44:00.953Z,6.61
2018-01-05T05:45:00.222Z,6.64
2018-01-05T05:46:00.249Z,6.64
2018-01-05T05:47:00.357Z,6.65
2018-01-05T05:48:00.558Z,6.66
2018-01-05T05:49:00.862Z,6.69
2018-01-05T05:50:01.416Z,6.65
2018-01-05T05:51:00.775Z,6.66
2018-01-05T05:52:00.986Z,6.66
2018-01-05T05:53:00.133Z,6.69
2018-01-05T05:54:00.254Z,6.64
2018-01-05T05:55:00.399Z,6.6
2018-01-05T05:56:00.878Z,6.61
2018-01-05T05:57:00.142Z,6.64
2018-01-05T05:58:00.291Z,6.66
2018-01-05T05:59:00.729Z,6.61
2018-01-05T06:00:01.042Z,6.61
2018-01-05T06:01:01.139Z,6.66
2018-01-05T06:02:00.501Z,6.66
2018-01-05T06:03:00.880Z,6.69
2018-01-05T06:04:00.143Z,6.71
2018-01-05T06:05:00.343Z,6.68
2018-01-05T06:06:00.629Z,6.65
2018-01-05T06:07:00.971Z,6.64
2018-01-05T06:08:01.220Z,6.64
2018-01-05T06:09:01.642Z,6.64
2018-01-05T06:10:00.963Z,6.65
2018-01-05T06:11:01.125Z,6.6
2018-01-05T06:12:01.314Z,6.61
2018-01-05T06:13:01.581Z,6.67
2018-01-05T06:14:00.855Z,6.62
2018-01-05T06:15:01.132Z,6.6
2018-01-05T06:16:01.298Z,6.65
2018-01-05T06:17:01.555Z,6.64
2018-01-05T06:18:01.058Z,6.64
2018-01-05T06:19:01.410Z,6.62
2018-01-05T06:20:00.667Z,6.66
2018-01-05T06:21:01.042Z,6.69
2018-01-05T06:22:01.269Z,6.69
2018-01-05T06:23:01.542Z,6.72
2018-01-05T06:24:00.652Z,6.72
2018-01-05T06:25:00.880Z,6.72
2018-01-05T06:26:01.225Z,6.72
2018-01-05T06:27:01.518Z,6.73
2018-01-05T06:28:00.919Z,6.73
2018-01-05T06:29:01.700Z,6.76
2018-01-05T06:30:01.120Z,6.76
2018-01-05T06:32:02.976Z,6.74
2018-01-05T06:33:01.380Z,6.75
2018-01-05T06:34:00.828Z,6.78
2018-01-05T06:35:01.242Z,6.78
2018-01-05T06:36:01.695Z,6.82
2018-01-05T06:37:00.600Z,6.82
2018-01-05T06:37:59.804Z,6.83
2018-01-05T06:39:00.083Z,6.84
2018-01-05T06:40:00.534Z,6.85
2018-01-05T06:40:59.753Z,6.86
2018-01-05T06:41:59.855Z,6.85
2018-01-05T06:43:00.116Z,6.85
2018-01-05T06:44:00.373Z,6.86
2018-01-05T06:45:00.697Z,6.85
2018-01-05T06:46:00.040Z,6.86
2018-01-05T06:47:00.169Z,6.91
2018-01-05T06:48:00.460Z,6.9
2018-01-05T06:48:59.684Z,6.9
2018-01-05T06:49:59.965Z,6.9
2018-01-05T06:51:00.600Z,6.9
2018-01-05T06:51:59.901Z,6.94
2018-01-05T06:53:00.265Z,6.91
2018-01-05T06:54:00.593Z,6.94
2018-01-05T06:55:00.075Z,6.94
2018-01-05T06:56:00.348Z,6.93
2018-01-05T06:57:00.590Z,6.94
2018-01-05T06:57:59.920Z,6.98
2018-01-05T06:59:00.242Z,6.97
2018-01-05T07:00:00.671Z,6.94
2018-01-05T07:01:00.329Z,6.97
2018-01-05T07:02:01.673Z,6.99
2018-01-05T07:02:59.899Z,6.99
2018-01-05T07:04:00.404Z,6.99
2018-01-05T07:04:59.629Z,6.99
2018-01-05T07:06:00.112Z,7.01
2018-01-05T07:07:00.500Z,7.02
2018-01-05T07:08:00.884Z,7.01
2018-01-05T07:09:01.884Z,7.01
2018-01-05T07:10:01.255Z,7.02
2018-01-05T07:11:00.858Z,7.04
2018-01-05T07:12:01.464Z,7.04
2018-01-05T07:13:00.507Z,7.07
2018-01-05T07:14:00.709Z,7.05
2018-01-05T07:15:01.088Z,7.07
2018-01-05T07:16:01.497Z,7.05
2018-01-05T07:17:00.946Z,7.08
2018-01-05T07:18:01.451Z,7.07
2018-01-05T07:19:00.958Z,7.07
2018-01-05T07:20:01.445Z,7.07
2018-01-05T07:21:00.857Z,7.07
2018-01-05T07:22:01.302Z,7.08
2018-01-05T07:23:01.513Z,7.09
2018-01-05T07:24:00.968Z,7.09
2018-01-05T07:25:01.409Z,7.09
2018-01-05T07:26:00.725Z,7.08
2018-01-05T07:27:01.102Z,7.1
2018-01-05T07:28:01.431Z,7.11
2018-01-05T07:29:00.814Z,7.11
2018-01-05T07:30:01.289Z,7.11
2018-01-05T07:31:00.536Z,7.12
2018-01-05T07:32:00.813Z,7.12
2018-01-05T07:33:01.161Z,7.13
2018-01-05T07:34:01.325Z,7.14
2018-01-05T07:35:00.715Z,7.15
2018-01-05T07:36:03.330Z,7.15
2018-01-05T07:37:00.660Z,7.16
2018-01-05T07:38:00.900Z,7.15
2018-01-05T07:39:01.284Z,7.17
2018-01-05T07:40:01.839Z,7.17
2018-01-05T07:41:01.303Z,7.16
2018-01-05T07:42:01.429Z,7.19
2018-01-05T07:43:01.633Z,7.18
2018-01-05T07:44:00.829Z,7.2
2018-01-05T07:45:01.276Z,7.21
2018-01-05T07:46:00.901Z,7.21
2018-01-05T07:47:01.727Z,7.22
2018-01-05T07:48:01.002Z,7.22
2018-01-05T07:49:01.046Z,7.22
2018-01-05T07:50:01.265Z,7.23
2018-01-05T07:51:01.636Z,7.24
2018-01-05T07:52:01.029Z,7.24
2018-01-05T07:53:01.384Z,7.22
2018-01-05T07:59:05.180Z,7.26
2018-01-05T08:00:01.560Z,7.27
2018-01-05T08:01:00.950Z,7.27
2018-01-05T08:02:01.108Z,7.27
2018-01-05T08:03:01.385Z,7.28
2018-01-05T08:04:00.985Z,7.27
2018-01-05T08:05:01.544Z,7.27
2018-01-05T08:06:00.892Z,7.29
2018-01-05T08:07:01.250Z,7.3
2018-01-05T08:08:00.877Z,7.3
2018-01-05T08:09:00.428Z,7.31
2018-01-05T08:10:00.979Z,7.31
2018-01-05T08:11:00.603Z,7.32
2018-01-05T08:12:00.896Z,7.36
2018-01-05T08:13:01.234Z,7.33
2018-01-05T08:14:00.659Z,7.35
2018-01-05T08:15:00.957Z,7.35
2018-01-05T08:16:00.339Z,7.34
2018-01-05T08:17:00.871Z,7.31
2018-01-05T08:18:01.744Z,7.31
2018-01-05T08:19:00.425Z,7.33
2018-01-05T08:20:01.089Z,7.33
2018-01-05T08:21:00.456Z,7.34
2018-01-05T08:22:00.856Z,7.32
2018-01-05T08:23:01.208Z,7.34
2018-01-05T08:24:00.594Z,7.34
2018-01-05T08:25:01.003Z,7.33
2018-01-05T08:26:01.130Z,7.34
2018-01-05T08:27:00.747Z,7.33
2018-01-05T08:28:00.916Z,7.35
2018-01-05T08:29:01.153Z,7.36
2018-01-05T08:30:00.580Z,7.35
2018-01-05T08:31:01.021Z,7.34
2018-01-05T08:32:00.371Z,7.34
2018-01-05T08:33:00.595Z,7.36
2018-01-05T08:34:00.942Z,7.34
2018-01-05T08:35:00.426Z,7.33
2018-01-05T08:36:00.803Z,7.33
2018-01-05T08:37:01.090Z,7.33
2018-01-05T08:38:00.803Z,7.35
2018-01-05T08:39:01.125Z,7.35
2018-01-05T08:40:01.451Z,7.36
2018-01-05T08:41:00.944Z,7.36
2018-01-05T08:42:01.696Z,7.35
2018-01-05T08:43:01.248Z,7.37
2018-01-05T08:44:01.519Z,7.37
2018-01-05T08:45:00.686Z,7.34
2018-01-05T08:46:00.858Z,7.36
2018-01-05T08:47:01.119Z,7.36
2018-01-05T08:48:01.478Z,7.36
2018-01-05T08:49:00.926Z,7.35
2018-01-05T08:50:01.271Z,7.33
2018-01-05T08:51:01.479Z,7.36
2018-01-05T08:52:00.903Z,7.36
2018-01-05T08:53:01.335Z,7.34
2018-01-05T08:54:00.743Z,7.35
2018-01-05T08:55:00.942Z,7.36
2018-01-05T08:56:01.205Z,7.36
2018-01-05T08:57:01.551Z,7.35
2018-01-05T08:58:00.964Z,7.35
2018-01-05T08:59:01.346Z,7.36
2018-01-05T09:00:00.768Z,7.36
2018-01-05T09:01:01.117Z,7.37
2018-01-05T09:02:01.503Z,7.38
2018-01-05T09:03:00.771Z,7.38
2018-01-05T09:04:01.214Z,7.38
2018-01-05T09:05:01.780Z,7.39
2018-01-05T09:06:01.189Z,7.36
2018-01-05T09:07:01.680Z,7.38
2018-01-05T09:08:01.308Z,7.39
2018-01-05T09:09:00.718Z,7.39
2018-01-05T09:10:01.293Z,7.39
2018-01-05T09:11:00.930Z,7.39
2018-01-05T09:12:00.269Z,7.39
2018-01-05T09:13:00.426Z,7.35
2018-01-05T09:14:00.561Z,7.36
2018-01-05T09:15:01.102Z,7.34
2018-01-05T09:16:00.424Z,7.35
2018-01-05T09:17:00.723Z,7.34
2018-01-05T09:18:01.261Z,7.34
2018-01-05T09:19:00.504Z,7.33
2018-01-05T09:20:00.692Z,7.34
2018-01-05T09:21:01.307Z,7.37
2018-01-05T09:22:00.818Z,7.36
2018-01-05T09:23:01.138Z,7.35
2018-01-05T09:24:00.414Z,7.34
2018-01-05T09:25:00.677Z,7.35
2018-01-05T09:26:00.910Z,7.34
2018-01-05T09:27:01.220Z,7.36
2018-01-05T09:28:00.684Z,7.37
2018-01-05T09:29:01.087Z,7.37
2018-01-05T09:30:00.390Z,7.37
2018-01-05T09:31:00.945Z,7.37
2018-01-05T09:32:00.355Z,7.37
2018-01-05T09:33:01.010Z,7.36
2018-01-05T09:34:01.267Z,7.4
2018-01-05T09:35:00.621Z,7.38
2018-01-05T09:36:00.869Z,7.39
2018-01-05T09:37:01.020Z,7.36
2018-01-05T09:38:00.520Z,7.39
2018-01-05T09:39:01.143Z,7.41
2018-01-05T09:40:00.560Z,7.41
2018-01-05T09:41:00.827Z,7.4
2018-01-05T09:42:00.094Z,7.42
2018-01-05T09:43:00.422Z,7.4
2018-01-05T09:43:59.901Z,7.41
2018-01-05T09:45:00.297Z,7.43
2018-01-05T09:46:00.843Z,7.47
2018-01-05T09:47:00.121Z,7.46
2018-01-05T09:48:00.447Z,7.45
2018-01-05T09:49:00.734Z,7.47
2018-01-05T09:50:00.268Z,7.49
2018-01-05T09:51:00.441Z,7.49
2018-01-05T09:52:00.538Z,7.5
2018-01-05T09:53:00.625Z,7.5
2018-01-05T09:54:00.855Z,7.52
2018-01-05T09:55:00.503Z,7.52
2018-01-05T09:56:00.869Z,7.53
2018-01-05T09:56:59.933Z,7.53
2018-01-05T09:58:00.214Z,7.54
2018-01-05T09:59:01.351Z,7.53
2018-01-05T10:00:00.625Z,7.52
2018-01-05T10:01:00.940Z,7.53
2018-01-05T10:02:00.290Z,7.55
2018-01-05T10:03:00.558Z,7.55
2018-01-05T10:04:00.781Z,7.57
2018-01-05T10:05:00.195Z,7.54
2018-01-05T10:06:00.781Z,7.57
2018-01-05T10:07:00.091Z,7.57
2018-01-05T10:08:00.260Z,7.58
2018-01-05T10:09:00.437Z,7.6
2018-01-05T10:10:00.820Z,7.63
2018-01-05T10:11:01.433Z,7.63
2018-01-05T10:12:01.692Z,7.63
2018-01-05T10:13:01.006Z,7.61
2018-01-05T10:14:01.307Z,7.6
2018-01-05T10:15:01.553Z,7.61
2018-01-05T10:16:00.617Z,7.64
2018-01-05T10:17:00.856Z,7.63
2018-01-05T10:18:01.158Z,7.66
2018-01-05T10:19:01.518Z,7.68
2018-01-05T10:20:00.779Z,7.67
2018-01-05T10:21:01.113Z,7.65
2018-01-05T10:22:01.291Z,7.66
2018-01-05T10:23:01.588Z,7.68
2018-01-05T10:24:00.824Z,7.68
2018-01-05T10:25:04.737Z,7.67
2018-01-05T10:26:01.157Z,7.7
2018-01-05T10:27:01.842Z,7.65
2018-01-05T10:28:01.423Z,7.66
2018-01-05T10:29:00.731Z,7.7
2018-01-05T10:30:01.119Z,7.67
2018-01-05T10:31:01.643Z,7.69
2018-01-05T10:32:01.234Z,7.68
2018-01-05T10:33:01.664Z,7.7
2018-01-05T10:34:00.975Z,7.73
2018-01-05T10:35:01.164Z,7.72
2018-01-05T10:36:01.584Z,7.68
2018-01-05T10:37:01.078Z,7.67
2018-01-05T10:38:01.670Z,7.67
2018-01-05T10:39:01.214Z,7.7
2018-01-05T10:40:01.669Z,7.69
2018-01-05T10:41:01.134Z,7.72
2018-01-05T10:42:01.573Z,7.75
2018-01-05T10:43:00.800Z,7.7
2018-01-05T10:44:01.272Z,7.71
2018-01-05T10:45:00.881Z,7.73
2018-01-05T10:46:01.368Z,7.74
2018-01-05T10:47:00.639Z,7.75
2018-01-05T10:48:00.963Z,7.75
2018-01-05T10:49:01.180Z,7.74
2018-01-05T10:50:00.774Z,7.74
2018-01-05T10:51:01.180Z,7.74
2018-01-05T10:52:00.738Z,7.76
2018-01-05T10:53:01.125Z,7.78
2018-01-05T10:54:01.518Z,7.76
2018-01-05T10:55:00.934Z,7.78
2018-01-05T10:56:01.353Z,7.8
2018-01-05T10:57:00.521Z,7.84
2018-01-05T10:58:01.037Z,7.84
2018-01-05T10:59:07.001Z,7.79
2018-01-05T11:00:00.703Z,7.83
2018-01-05T11:01:01.121Z,7.83
2018-01-05T11:02:01.356Z,7.85
2018-01-05T11:03:00.738Z,7.85
2018-01-05T11:04:01.077Z,7.86
2018-01-05T11:05:01.454Z,7.88
2018-01-05T11:06:00.873Z,7.9
2018-01-05T11:07:01.290Z,7.91
2018-01-05T11:08:00.701Z,7.94
2018-01-05T11:09:00.904Z,7.96
2018-01-05T11:10:01.503Z,8.02
2018-01-05T11:11:01.211Z,8.02
2018-01-05T11:12:00.715Z,8.07
2018-01-05T11:12:59.962Z,8.06
2018-01-05T11:14:00.147Z,8.12
2018-01-05T11:15:00.526Z,8.11
2018-01-05T11:16:01.212Z,8.09
2018-01-05T11:17:00.777Z,8.11
2018-01-05T11:18:00.165Z,8.03
2018-01-05T11:19:00.450Z,8.08
2018-01-05T11:20:00.752Z,8.03
2018-01-05T11:21:00.093Z,8.04
2018-01-05T11:22:01.484Z,8.02
2018-01-05T11:23:01.265Z,8.03
2018-01-05T11:24:00.676Z,8.02
2018-01-05T11:25:02.947Z,8.03
2018-01-05T11:26:07.887Z,8.05
2018-01-05T11:27:00.405Z,8.06
2018-01-05T11:28:01.076Z,8.07
2018-01-05T11:29:00.335Z,7.94
2018-01-05T11:30:00.793Z,8
2018-01-05T11:31:00.418Z,7.96
2018-01-05T11:32:00.672Z,7.96
2018-01-05T11:33:00.285Z,7.98
2018-01-05T11:34:00.709Z,7.9
2018-01-05T11:35:00.169Z,7.96
2018-01-05T11:36:00.390Z,7.94
2018-01-05T11:37:00.648Z,7.94
2018-01-05T11:38:01.875Z,7.88
2018-01-05T11:39:00.129Z,7.93
2018-01-05T11:40:00.388Z,7.93
2018-01-05T11:41:00.842Z,7.95
2018-01-05T11:42:00.177Z,7.93
2018-01-05T11:43:00.618Z,7.95
2018-01-05T11:44:01.046Z,7.98
2018-01-05T11:45:00.564Z,7.98
2018-01-05T11:46:00.944Z,8
2018-01-05T11:47:01.086Z,8.02
2018-01-05T11:48:00.616Z,8.05
2018-01-05T11:49:01.144Z,8.05
2018-01-05T11:50:00.409Z,8.07
2018-01-05T11:51:00.903Z,8.05
2018-01-05T11:52:00.425Z,8.1
2018-01-05T11:53:00.927Z,8.15
2018-01-05T11:54:00.657Z,8.13
2018-01-05T11:55:03.795Z,8.19
2018-01-05T11:56:01.211Z,8.18
2018-01-05T11:57:00.720Z,8.17
2018-01-05T11:58:01.117Z,8.18
2018-01-05T11:59:00.519Z,8.2
2018-01-05T12:00:01.079Z,8.2
2018-01-05T12:01:00.641Z,8.2
2018-01-05T12:02:01.267Z,8.22
2018-01-05T12:03:00.453Z,8.22
2018-01-05T12:04:01.173Z,8.23
2018-01-05T12:05:00.838Z,8.22
2018-01-05T12:06:01.312Z,8.23
2018-01-05T12:07:00.900Z,8.29
2018-01-05T12:08:00.403Z,8.24
2018-01-05T12:09:00.726Z,8.31
2018-01-05T12:10:01.052Z,8.32
2018-01-05T12:11:00.426Z,8.31
2018-01-05T12:12:00.926Z,8.29
2018-01-05T12:13:00.260Z,8.29
2018-01-05T12:14:00.724Z,8.28
2018-01-05T12:15:00.492Z,8.29
2018-01-05T12:16:00.198Z,8.33
2018-01-05T12:17:00.442Z,8.29
2018-01-05T12:18:00.860Z,8.35
2018-01-05T12:19:00.303Z,8.32
2018-01-05T12:20:00.897Z,8.35
2018-01-05T12:21:00.152Z,8.39
2018-01-05T12:22:00.573Z,8.34
2018-01-05T12:23:00.092Z,8.33
2018-01-05T12:24:00.583Z,8.34
2018-01-05T12:25:01.383Z,8.38
2018-01-05T12:26:02.579Z,8.35
2018-01-05T12:27:00.235Z,8.44
2018-01-05T12:28:00.187Z,8.41
2018-01-05T12:29:00.432Z,8.42
2018-01-05T12:30:01.047Z,8.43
2018-01-05T12:31:01.669Z,8.38
2018-01-05T12:31:59.997Z,8.39
2018-01-05T12:33:02.387Z,8.38
2018-01-05T12:34:00.676Z,8.37
2018-01-05T12:35:00.159Z,8.35
2018-01-05T12:36:00.461Z,8.35
2018-01-05T12:37:00.736Z,8.35
2018-01-05T12:38:00.230Z,8.35
2018-01-05T12:39:00.539Z,8.35
2018-01-05T12:40:00.039Z,8.36
2018-01-05T12:41:00.638Z,8.46
2018-01-05T12:42:00.035Z,8.39
2018-01-05T12:43:00.548Z,8.41
2018-01-05T12:44:01.295Z,8.46
2018-01-05T12:45:01.151Z,8.46
2018-01-05T12:46:00.537Z,8.42
2018-01-05T12:47:00.794Z,8.51
2018-01-05T12:48:01.274Z,8.51
2018-01-05T12:49:00.723Z,8.5
2018-01-05T12:50:00.852Z,8.49
2018-01-05T12:51:01.082Z,8.54
2018-01-05T12:52:02.016Z,8.5
2018-01-05T12:53:00.551Z,8.51
2018-01-05T12:54:00.920Z,8.52
2018-01-05T12:55:01.493Z,8.55
2018-01-05T12:56:00.764Z,8.52
2018-01-05T12:57:00.989Z,8.54
2018-01-05T12:58:01.252Z,8.51
2018-01-05T12:59:00.697Z,8.52
2018-01-05T13:00:01.359Z,8.59
2018-01-05T13:01:00.707Z,8.57
2018-01-05T13:02:01.128Z,8.6
2018-01-05T13:03:00.560Z,8.63
2018-01-05T13:04:00.948Z,8.67
2018-01-05T13:05:01.376Z,8.62
2018-01-05T13:06:00.682Z,8.58
2018-01-05T13:07:00.957Z,8.62
2018-01-05T13:08:01.232Z,8.62
2018-01-05T13:09:00.702Z,8.59
2018-01-05T13:10:01.291Z,8.63
2018-01-05T13:11:00.379Z,8.63
2018-01-05T13:12:00.572Z,8.63
2018-01-05T13:13:00.886Z,8.68
2018-01-05T13:14:00.196Z,8.64
2018-01-05T13:15:00.539Z,8.64
2018-01-05T13:16:00.902Z,8.66
2018-01-05T13:17:00.248Z,8.67
2018-01-05T13:18:00.591Z,8.68
2018-01-05T13:19:00.099Z,8.65
2018-01-05T13:20:00.469Z,8.64
2018-01-05T13:21:00.786Z,8.71
2018-01-05T13:22:00.476Z,8.7
2018-01-05T13:23:00.856Z,8.66
2018-01-05T13:24:00.233Z,8.65
2018-01-05T13:25:00.620Z,8.67
2018-01-05T13:25:59.999Z,8.67
2018-01-05T13:27:00.307Z,8.65
2018-01-05T13:28:00.461Z,8.7
2018-01-05T13:29:00.647Z,8.69
2018-01-05T13:30:00.896Z,8.68